sensor_id;sensor_type;location;lat;lon;timestamp;pressure;altitude;pressure_sealevel;temperature;humidity
7930;BME280;4010;42.698;23.124;2023-03-26T00:01:09;118349.16;;;-140.64;92.12
7930;BME280;4010;42.698;23.124;2023-03-26T00:03:38;118349.16;;;-140.64;92.48
7930;BME280;4010;42.698;23.124;2023-03-26T00:06:09;118349.16;;;-140.64;93.19
7930;BME280;4010;42.698;23.124;2023-03-26T00:08:38;118349.16;;;-140.64;93.38
7930;BME280;4010;42.698;23.124;2023-03-26T00:11:06;118349.16;;;-140.64;93.57
7930;BME280;4010;42.698;23.124;2023-03-26T00:13:34;118349.16;;;-140.64;93.69
7930;BME280;4010;42.698;23.124;2023-03-26T00:16:02;118349.16;;;-140.64;94.53
7930;BME280;4010;42.698;23.124;2023-03-26T00:18:29;118349.16;;;-140.64;95.33
7930;BME280;4010;42.698;23.124;2023-03-26T00:20:55;118349.16;;;-140.64;95.54
7930;BME280;4010;42.698;23.124;2023-03-26T00:23:24;118349.16;;;-140.64;96.25
7930;BME280;4010;42.698;23.124;2023-03-26T00:25:51;118349.16;;;-140.64;96.60
7930;BME280;4010;42.698;23.124;2023-03-26T00:28:18;118349.16;;;-140.64;97.24
7930;BME280;4010;42.698;23.124;2023-03-26T00:30:46;118349.16;;;-140.64;98.45
7930;BME280;4010;42.698;23.124;2023-03-26T00:33:13;118349.16;;;-140.64;98.62
7930;BME280;4010;42.698;23.124;2023-03-26T00:35:50;118349.16;;;-140.64;99.13
7930;BME280;4010;42.698;23.124;2023-03-26T00:38:18;118349.16;;;-140.64;99.31
7930;BME280;4010;42.698;23.124;2023-03-26T00:40:48;118349.16;;;-140.64;99.57
7930;BME280;4010;42.698;23.124;2023-03-26T00:43:16;118349.16;;;-140.64;99.83
7930;BME280;4010;42.698;23.124;2023-03-26T00:45:45;118349.16;;;-140.64;100.00
7930;BME280;4010;42.698;23.124;2023-03-26T00:48:12;118349.16;;;-140.64;100.00
7930;BME280;4010;42.698;23.124;2023-03-26T00:50:39;118349.16;;;-140.64;100.00
7930;BME280;4010;42.698;23.124;2023-03-26T00:53:07;118349.16;;;-140.64;100.00
7930;BME280;4010;42.698;23.124;2023-03-26T00:55:36;118349.16;;;-140.64;100.00
7930;BME280;4010;42.698;23.124;2023-03-26T00:58:04;118349.16;;;-140.64;100.00
7930;BME280;4010;42.698;23.124;2023-03-26T01:00:38;118349.16;;;-140.64;100.00
7930;BME280;4010;42.698;23.124;2023-03-26T01:03:05;118349.16;;;-140.64;100.00
7930;BME280;4010;42.698;23.124;2023-03-26T01:05:45;118349.16;;;-140.64;100.00
7930;BME280;4010;42.698;23.124;2023-03-26T01:08:18;118349.16;;;-140.64;100.00
7930;BME280;4010;42.698;23.124;2023-03-26T01:10:48;118349.16;;;-140.64;100.00
7930;BME280;4010;42.698;23.124;2023-03-26T01:13:18;118349.16;;;-140.64;100.00
7930;BME280;4010;42.698;23.124;2023-03-26T01:15:46;118349.16;;;-140.64;100.00
7930;BME280;4010;42.698;23.124;2023-03-26T01:18:17;118349.16;;;-140.64;100.00
7930;BME280;4010;42.698;23.124;2023-03-26T01:20:45;118349.16;;;-140.64;100.00
7930;BME280;4010;42.698;23.124;2023-03-26T01:23:19;118349.16;;;-140.64;100.00
7930;BME280;4010;42.698;23.124;2023-03-26T01:25:53;118349.16;;;-140.64;100.00
7930;BME280;4010;42.698;23.124;2023-03-26T01:28:23;118349.16;;;-140.64;100.00
7930;BME280;4010;42.698;23.124;2023-03-26T01:30:57;118349.16;;;-140.64;100.00
7930;BME280;4010;42.698;23.124;2023-03-26T01:33:34;118349.16;;;-140.64;100.00
7930;BME280;4010;42.698;23.124;2023-03-26T01:36:06;118349.16;;;-140.64;100.00
7930;BME280;4010;42.698;23.124;2023-03-26T01:38:40;118349.16;;;-140.64;100.00
7930;BME280;4010;42.698;23.124;2023-03-26T01:41:16;118349.16;;;-140.64;100.00
7930;BME280;4010;42.698;23.124;2023-03-26T01:43:48;118349.16;;;-140.64;100.00
7930;BME280;4010;42.698;23.124;2023-03-26T01:46:17;118349.16;;;-140.64;100.00
7930;BME280;4010;42.698;23.124;2023-03-26T01:48:46;118349.16;;;-140.64;100.00
7930;BME280;4010;42.698;23.124;2023-03-26T01:51:25;118349.16;;;-140.64;100.00
7930;BME280;4010;42.698;23.124;2023-03-26T01:53:52;118349.16;;;-140.64;100.00
7930;BME280;4010;42.698;23.124;2023-03-26T01:56:25;118349.16;;;-140.64;100.00
7930;BME280;4010;42.698;23.124;2023-03-26T01:59:02;118349.16;;;-140.64;100.00
7930;BME280;4010;42.698;23.124;2023-03-26T02:01:36;118349.16;;;-140.64;100.00
7930;BME280;4010;42.698;23.124;2023-03-26T02:04:18;118349.16;;;-140.64;100.00
7930;BME280;4010;42.698;23.124;2023-03-26T02:06:50;118349.16;;;-140.64;100.00
7930;BME280;4010;42.698;23.124;2023-03-26T02:09:21;118349.16;;;-140.64;100.00
7930;BME280;4010;42.698;23.124;2023-03-26T02:11:52;118349.16;;;-140.64;100.00
7930;BME280;4010;42.698;23.124;2023-03-26T02:14:19;118349.16;;;-140.64;100.00
7930;BME280;4010;42.698;23.124;2023-03-26T02:16:46;118349.16;;;-140.64;100.00
7930;BME280;4010;42.698;23.124;2023-03-26T02:19:13;118349.16;;;-140.64;100.00
7930;BME280;4010;42.698;23.124;2023-03-26T02:21:46;118349.16;;;-140.64;100.00
7930;BME280;4010;42.698;23.124;2023-03-26T02:24:15;118349.16;;;-140.64;100.00
7930;BME280;4010;42.698;23.124;2023-03-26T02:26:43;118349.16;;;-140.64;100.00
7930;BME280;4010;42.698;23.124;2023-03-26T02:29:11;118349.16;;;-140.64;100.00
7930;BME280;4010;42.698;23.124;2023-03-26T02:31:39;118349.16;;;-140.64;100.00
7930;BME280;4010;42.698;23.124;2023-03-26T02:34:07;118349.16;;;-140.64;100.00
7930;BME280;4010;42.698;23.124;2023-03-26T02:36:34;118349.16;;;-140.64;100.00
7930;BME280;4010;42.698;23.124;2023-03-26T02:39:01;118349.16;;;-140.64;100.00
7930;BME280;4010;42.698;23.124;2023-03-26T02:41:28;118349.16;;;-140.64;100.00
7930;BME280;4010;42.698;23.124;2023-03-26T02:43:55;118349.16;;;-140.64;100.00
7930;BME280;4010;42.698;23.124;2023-03-26T02:46:23;118349.16;;;-140.64;100.00
7930;BME280;4010;42.698;23.124;2023-03-26T02:48:50;118349.16;;;-140.64;100.00
7930;BME280;4010;42.698;23.124;2023-03-26T02:51:16;118349.16;;;-140.64;100.00
7930;BME280;4010;42.698;23.124;2023-03-26T02:53:44;118349.16;;;-140.64;100.00
7930;BME280;4010;42.698;23.124;2023-03-26T02:56:11;118349.16;;;-140.64;100.00
7930;BME280;4010;42.698;23.124;2023-03-26T02:58:38;118349.16;;;-140.64;100.00
7930;BME280;4010;42.698;23.124;2023-03-26T03:01:05;118349.16;;;-140.64;100.00
7930;BME280;4010;42.698;23.124;2023-03-26T03:03:33;118349.16;;;-140.64;100.00
7930;BME280;4010;42.698;23.124;2023-03-26T03:06:00;118349.16;;;-140.64;100.00
7930;BME280;4010;42.698;23.124;2023-03-26T03:08:27;118349.16;;;-140.64;100.00
7930;BME280;4010;42.698;23.124;2023-03-26T03:10:56;118349.16;;;-140.64;100.00
7930;BME280;4010;42.698;23.124;2023-03-26T03:13:23;118349.16;;;-140.64;100.00
7930;BME280;4010;42.698;23.124;2023-03-26T03:15:50;118349.16;;;-140.64;100.00
7930;BME280;4010;42.698;23.124;2023-03-26T03:18:16;118349.16;;;-140.64;100.00
7930;BME280;4010;42.698;23.124;2023-03-26T03:20:45;118349.16;;;-140.64;100.00
7930;BME280;4010;42.698;23.124;2023-03-26T03:23:12;118349.16;;;-140.64;100.00
7930;BME280;4010;42.698;23.124;2023-03-26T03:25:39;118349.16;;;-140.64;100.00
7930;BME280;4010;42.698;23.124;2023-03-26T03:28:06;118349.16;;;-140.64;100.00
7930;BME280;4010;42.698;23.124;2023-03-26T03:30:33;118349.16;;;-140.64;100.00
7930;BME280;4010;42.698;23.124;2023-03-26T03:33:00;118349.16;;;-140.64;100.00
7930;BME280;4010;42.698;23.124;2023-03-26T03:35:27;118349.16;;;-140.64;100.00
7930;BME280;4010;42.698;23.124;2023-03-26T03:37:56;118349.16;;;-140.64;100.00
7930;BME280;4010;42.698;23.124;2023-03-26T03:40:23;118349.16;;;-140.64;100.00
7930;BME280;4010;42.698;23.124;2023-03-26T03:42:50;118349.16;;;-140.64;100.00
7930;BME280;4010;42.698;23.124;2023-03-26T03:45:17;118349.16;;;-140.64;100.00
7930;BME280;4010;42.698;23.124;2023-03-26T03:47:44;118349.16;;;-140.64;99.98
7930;BME280;4010;42.698;23.124;2023-03-26T03:50:11;118349.16;;;-140.64;100.00
7930;BME280;4010;42.698;23.124;2023-03-26T03:52:38;118349.16;;;-140.64;100.00
7930;BME280;4010;42.698;23.124;2023-03-26T03:55:06;118349.16;;;-140.64;99.84
7930;BME280;4010;42.698;23.124;2023-03-26T03:57:34;118349.16;;;-140.64;99.80
7930;BME280;4010;42.698;23.124;2023-03-26T04:00:02;118349.16;;;-140.64;99.75
7930;BME280;4010;42.698;23.124;2023-03-26T04:02:29;118349.16;;;-140.64;100.00
7930;BME280;4010;42.698;23.124;2023-03-26T04:04:59;118349.16;;;-140.64;99.74
7930;BME280;4010;42.698;23.124;2023-03-26T04:07:27;118349.16;;;-140.64;100.00
7930;BME280;4010;42.698;23.124;2023-03-26T04:09:55;118349.16;;;-140.64;100.00
7930;BME280;4010;42.698;23.124;2023-03-26T04:12:25;118349.16;;;-140.64;99.53
7930;BME280;4010;42.698;23.124;2023-03-26T04:14:52;118349.16;;;-140.64;99.19
7930;BME280;4010;42.698;23.124;2023-03-26T04:17:19;118349.16;;;-140.64;99.19
7930;BME280;4010;42.698;23.124;2023-03-26T04:19:46;118349.16;;;-140.64;99.51
7930;BME280;4010;42.698;23.124;2023-03-26T04:22:14;118349.16;;;-140.64;98.33
7930;BME280;4010;42.698;23.124;2023-03-26T04:24:43;118349.16;;;-140.64;98.30
7930;BME280;4010;42.698;23.124;2023-03-26T04:27:12;118349.16;;;-140.64;98.30
7930;BME280;4010;42.698;23.124;2023-03-26T04:29:43;118349.16;;;-140.64;97.96
7930;BME280;4010;42.698;23.124;2023-03-26T04:32:16;118349.16;;;-140.64;97.23
7930;BME280;4010;42.698;23.124;2023-03-26T04:34:44;118349.16;;;-140.64;97.16
7930;BME280;4010;42.698;23.124;2023-03-26T04:37:18;118349.16;;;-140.64;96.89
7930;BME280;4010;42.698;23.124;2023-03-26T04:39:46;118349.16;;;-140.64;96.33
7930;BME280;4010;42.698;23.124;2023-03-26T04:42:14;118349.16;;;-140.64;95.99
7930;BME280;4010;42.698;23.124;2023-03-26T04:44:45;118349.16;;;-140.64;96.02
7930;BME280;4010;42.698;23.124;2023-03-26T04:47:15;118349.16;;;-140.64;94.78
7930;BME280;4010;42.698;23.124;2023-03-26T04:49:42;118349.16;;;-140.64;93.73
7930;BME280;4010;42.698;23.124;2023-03-26T04:52:10;118349.16;;;-140.64;92.87
7930;BME280;4010;42.698;23.124;2023-03-26T04:54:37;118349.16;;;-140.64;93.07
7930;BME280;4010;42.698;23.124;2023-03-26T04:57:07;118349.16;;;-140.64;93.03
7930;BME280;4010;42.698;23.124;2023-03-26T04:59:37;118349.16;;;-140.64;92.29
7930;BME280;4010;42.698;23.124;2023-03-26T05:02:07;118349.16;;;-140.64;92.43
7930;BME280;4010;42.698;23.124;2023-03-26T05:04:34;118349.16;;;-140.64;93.28
7930;BME280;4010;42.698;23.124;2023-03-26T05:07:03;118349.16;;;-140.64;90.18
7930;BME280;4010;42.698;23.124;2023-03-26T05:09:30;118349.16;;;-140.64;88.61
7930;BME280;4010;42.698;23.124;2023-03-26T05:11:56;118349.16;;;-140.64;88.63
7930;BME280;4010;42.698;23.124;2023-03-26T05:14:23;118349.16;;;-140.64;88.52
7930;BME280;4010;42.698;23.124;2023-03-26T05:16:50;118349.16;;;-140.64;82.01
7930;BME280;4010;42.698;23.124;2023-03-26T05:19:20;118349.16;;;-140.64;75.28
7930;BME280;4010;42.698;23.124;2023-03-26T05:21:46;118349.16;;;-140.64;70.92
7930;BME280;4010;42.698;23.124;2023-03-26T05:24:13;118349.16;;;-140.64;67.79
7930;BME280;4010;42.698;23.124;2023-03-26T05:26:40;118349.16;;;-140.64;72.13
7930;BME280;4010;42.698;23.124;2023-03-26T05:29:07;118349.16;;;-140.64;74.46
7930;BME280;4010;42.698;23.124;2023-03-26T05:31:34;118349.16;;;-140.64;76.42
7930;BME280;4010;42.698;23.124;2023-03-26T05:34:00;118349.16;;;-140.64;78.14
7930;BME280;4010;42.698;23.124;2023-03-26T05:36:29;118349.16;;;-140.64;79.98
7930;BME280;4010;42.698;23.124;2023-03-26T05:38:55;118349.16;;;-140.64;79.46
7930;BME280;4010;42.698;23.124;2023-03-26T05:41:22;118349.16;;;-140.64;78.04
7930;BME280;4010;42.698;23.124;2023-03-26T05:43:49;118349.16;;;-140.64;76.28
7930;BME280;4010;42.698;23.124;2023-03-26T05:46:15;118349.16;;;-140.64;74.87
7930;BME280;4010;42.698;23.124;2023-03-26T05:48:44;118349.16;;;-140.64;73.95
7930;BME280;4010;42.698;23.124;2023-03-26T05:51:11;118349.16;;;-140.64;73.41
7930;BME280;4010;42.698;23.124;2023-03-26T05:53:41;118349.16;;;-140.64;72.90
7930;BME280;4010;42.698;23.124;2023-03-26T05:56:08;118349.16;;;-140.64;73.00
7930;BME280;4010;42.698;23.124;2023-03-26T05:58:36;118349.16;;;-140.64;72.79
7930;BME280;4010;42.698;23.124;2023-03-26T06:01:04;118349.16;;;-140.64;71.83
7930;BME280;4010;42.698;23.124;2023-03-26T06:03:33;118349.16;;;-140.64;72.20
7930;BME280;4010;42.698;23.124;2023-03-26T06:06:00;118349.16;;;-140.64;72.86
7930;BME280;4010;42.698;23.124;2023-03-26T06:08:28;118349.16;;;-140.64;75.76
7930;BME280;4010;42.698;23.124;2023-03-26T06:11:01;118349.16;;;-140.64;75.84
7930;BME280;4010;42.698;23.124;2023-03-26T06:13:28;118349.16;;;-140.64;75.50
7930;BME280;4010;42.698;23.124;2023-03-26T06:15:55;118349.16;;;-140.64;74.60
7930;BME280;4010;42.698;23.124;2023-03-26T06:18:23;118349.16;;;-140.64;75.78
7930;BME280;4010;42.698;23.124;2023-03-26T06:20:49;118349.16;;;-140.64;75.10
7930;BME280;4010;42.698;23.124;2023-03-26T06:23:16;118349.16;;;-140.64;76.79
7930;BME280;4010;42.698;23.124;2023-03-26T06:25:43;118349.16;;;-140.64;74.45
7930;BME280;4010;42.698;23.124;2023-03-26T06:28:12;118349.16;;;-140.64;74.97
7930;BME280;4010;42.698;23.124;2023-03-26T06:30:39;118349.16;;;-140.64;73.58
7930;BME280;4010;42.698;23.124;2023-03-26T06:33:06;118349.16;;;-140.64;74.85
7930;BME280;4010;42.698;23.124;2023-03-26T06:35:33;118349.16;;;-140.64;72.44
7930;BME280;4010;42.698;23.124;2023-03-26T06:38:00;118349.16;;;-140.64;72.35
7930;BME280;4010;42.698;23.124;2023-03-26T06:40:27;118349.16;;;-140.64;72.81
7930;BME280;4010;42.698;23.124;2023-03-26T06:42:53;118349.16;;;-140.64;71.04
7930;BME280;4010;42.698;23.124;2023-03-26T06:45:22;118349.16;;;-140.64;68.66
7930;BME280;4010;42.698;23.124;2023-03-26T06:47:49;118349.16;;;-140.64;68.17
7930;BME280;4010;42.698;23.124;2023-03-26T06:50:16;118349.16;;;-140.64;70.58
7930;BME280;4010;42.698;23.124;2023-03-26T06:52:43;118349.16;;;-140.64;69.34
7930;BME280;4010;42.698;23.124;2023-03-26T06:55:10;118349.16;;;-140.64;68.45
7930;BME280;4010;42.698;23.124;2023-03-26T06:57:37;118349.16;;;-140.64;68.54
7930;BME280;4010;42.698;23.124;2023-03-26T07:00:05;118349.16;;;-140.64;65.73
7930;BME280;4010;42.698;23.124;2023-03-26T07:02:34;118349.16;;;-140.64;64.22
7930;BME280;4010;42.698;23.124;2023-03-26T07:05:01;118349.16;;;-140.64;63.92
7930;BME280;4010;42.698;23.124;2023-03-26T07:07:28;118349.16;;;-140.64;65.08
7930;BME280;4010;42.698;23.124;2023-03-26T07:09:54;118349.16;;;-140.64;64.48
7930;BME280;4010;42.698;23.124;2023-03-26T07:12:21;118349.16;;;-140.64;63.97
7930;BME280;4010;42.698;23.124;2023-03-26T07:14:48;118349.16;;;-140.64;62.27
7930;BME280;4010;42.698;23.124;2023-03-26T07:17:15;118349.16;;;-140.64;63.00
7930;BME280;4010;42.698;23.124;2023-03-26T07:19:43;118349.16;;;-140.64;60.45
7930;BME280;4010;42.698;23.124;2023-03-26T07:22:14;118349.16;;;-140.64;61.32
7930;BME280;4010;42.698;23.124;2023-03-26T07:24:44;118349.16;;;-140.64;62.89
7930;BME280;4010;42.698;23.124;2023-03-26T07:27:22;118349.16;;;-140.64;63.25
7930;BME280;4010;42.698;23.124;2023-03-26T07:29:57;118349.16;;;-140.64;62.60
7930;BME280;4010;42.698;23.124;2023-03-26T07:32:46;118349.16;;;-140.64;61.82
7930;BME280;4010;42.698;23.124;2023-03-26T07:35:20;118349.16;;;-140.64;59.57
7930;BME280;4010;42.698;23.124;2023-03-26T07:37:57;118349.16;;;-140.64;58.61
7930;BME280;4010;42.698;23.124;2023-03-26T07:40:42;118349.16;;;-140.64;58.30
7930;BME280;4010;42.698;23.124;2023-03-26T07:43:21;118349.16;;;-140.64;58.59
7930;BME280;4010;42.698;23.124;2023-03-26T07:45:49;118349.16;;;-140.64;55.46
7930;BME280;4010;42.698;23.124;2023-03-26T07:48:19;118349.16;;;-140.64;55.50
7930;BME280;4010;42.698;23.124;2023-03-26T07:50:52;118349.16;;;-140.64;57.18
7930;BME280;4010;42.698;23.124;2023-03-26T07:53:19;118349.16;;;-140.64;57.30
7930;BME280;4010;42.698;23.124;2023-03-26T07:55:51;118349.16;;;-140.64;56.51
7930;BME280;4010;42.698;23.124;2023-03-26T07:58:39;118349.16;;;-140.64;53.40
7930;BME280;4010;42.698;23.124;2023-03-26T08:01:15;118349.16;;;-140.64;55.37
7930;BME280;4010;42.698;23.124;2023-03-26T08:04:13;118349.16;;;-140.64;55.31
7930;BME280;4010;42.698;23.124;2023-03-26T08:06:53;118349.16;;;-140.64;54.88
7930;BME280;4010;42.698;23.124;2023-03-26T08:09:29;118349.16;;;-140.64;54.94
7930;BME280;4010;42.698;23.124;2023-03-26T08:12:05;118349.16;;;-140.64;55.44
7930;BME280;4010;42.698;23.124;2023-03-26T08:14:47;118349.16;;;-140.64;53.17
7930;BME280;4010;42.698;23.124;2023-03-26T08:17:28;118349.16;;;-140.64;53.58
7930;BME280;4010;42.698;23.124;2023-03-26T08:20:03;118349.16;;;-140.64;54.29
7930;BME280;4010;42.698;23.124;2023-03-26T08:22:37;118349.16;;;-140.64;51.47
7930;BME280;4010;42.698;23.124;2023-03-26T08:25:17;118349.16;;;-140.64;51.42
7930;BME280;4010;42.698;23.124;2023-03-26T08:27:56;118349.16;;;-140.64;53.20
7930;BME280;4010;42.698;23.124;2023-03-26T08:30:29;118349.16;;;-140.64;54.06
7930;BME280;4010;42.698;23.124;2023-03-26T08:32:58;118349.16;;;-140.64;53.97
7930;BME280;4010;42.698;23.124;2023-03-26T08:35:26;118349.16;;;-140.64;55.86
7930;BME280;4010;42.698;23.124;2023-03-26T08:37:54;118349.16;;;-140.64;54.25
7930;BME280;4010;42.698;23.124;2023-03-26T08:40:42;118349.16;;;-140.64;55.92
7930;BME280;4010;42.698;23.124;2023-03-26T08:46:42;118349.16;;;-140.64;52.07
7930;BME280;4010;42.698;23.124;2023-03-26T08:49:45;118349.16;;;-140.64;51.27
7930;BME280;4010;42.698;23.124;2023-03-26T08:55:39;118349.16;;;-140.64;50.81
7930;BME280;4010;42.698;23.124;2023-03-26T08:58:38;118349.16;;;-140.64;50.84
7930;BME280;4010;42.698;23.124;2023-03-26T09:01:33;118349.16;;;-140.64;52.46
7930;BME280;4010;42.698;23.124;2023-03-26T09:04:29;118349.16;;;-140.64;51.67
7930;BME280;4010;42.698;23.124;2023-03-26T09:07:29;118349.16;;;-140.64;50.72
7930;BME280;4010;42.698;23.124;2023-03-26T09:13:37;118349.16;;;-140.64;52.19
7930;BME280;4010;42.698;23.124;2023-03-26T09:16:58;118349.16;;;-140.64;49.10
7930;BME280;4010;42.698;23.124;2023-03-26T09:19:54;118349.16;;;-140.64;50.41
7930;BME280;4010;42.698;23.124;2023-03-26T09:26:01;118349.16;;;-140.64;49.67
7930;BME280;4010;42.698;23.124;2023-03-26T09:29:14;118349.16;;;-140.64;47.93
7930;BME280;4010;42.698;23.124;2023-03-26T09:32:23;118349.16;;;-140.64;48.07
7930;BME280;4010;42.698;23.124;2023-03-26T09:35:13;118349.16;;;-140.64;45.65
7930;BME280;4010;42.698;23.124;2023-03-26T09:37:52;118349.16;;;-140.64;45.53
7930;BME280;4010;42.698;23.124;2023-03-26T09:40:31;118349.16;;;-140.64;47.19
7930;BME280;4010;42.698;23.124;2023-03-26T09:43:19;118349.16;;;-140.64;43.89
7930;BME280;4010;42.698;23.124;2023-03-26T09:46:05;118349.16;;;-140.64;45.42
7930;BME280;4010;42.698;23.124;2023-03-26T09:51:48;118349.16;;;-140.64;43.48
7930;BME280;4010;42.698;23.124;2023-03-26T09:57:33;118349.16;;;-140.64;44.86
7930;BME280;4010;42.698;23.124;2023-03-26T10:00:21;118349.16;;;-140.64;48.86
7930;BME280;4010;42.698;23.124;2023-03-26T10:05:50;118349.16;;;-140.64;41.66
7930;BME280;4010;42.698;23.124;2023-03-26T10:08:38;118349.16;;;-140.64;44.21
7930;BME280;4010;42.698;23.124;2023-03-26T10:11:19;118349.16;;;-140.64;43.28
7930;BME280;4010;42.698;23.124;2023-03-26T10:13:56;118349.16;;;-140.64;39.53
7930;BME280;4010;42.698;23.124;2023-03-26T10:16:29;118349.16;;;-140.64;40.35
7930;BME280;4010;42.698;23.124;2023-03-26T10:19:17;118349.16;;;-140.64;40.01
7930;BME280;4010;42.698;23.124;2023-03-26T10:21:52;118349.16;;;-140.64;42.64
7930;BME280;4010;42.698;23.124;2023-03-26T10:24:32;118349.16;;;-140.64;40.08
7930;BME280;4010;42.698;23.124;2023-03-26T10:27:11;118349.16;;;-140.64;42.12
7930;BME280;4010;42.698;23.124;2023-03-26T10:30:19;118349.16;;;-140.64;44.43
7930;BME280;4010;42.698;23.124;2023-03-26T10:32:58;118349.16;;;-140.64;44.39
7930;BME280;4010;42.698;23.124;2023-03-26T10:35:39;118349.16;;;-140.64;42.10
7930;BME280;4010;42.698;23.124;2023-03-26T10:38:15;118349.16;;;-140.64;41.56
7930;BME280;4010;42.698;23.124;2023-03-26T10:40:53;118349.16;;;-140.64;41.32
7930;BME280;4010;42.698;23.124;2023-03-26T10:43:39;118349.16;;;-140.64;41.50
7930;BME280;4010;42.698;23.124;2023-03-26T10:46:27;118349.16;;;-140.64;42.38
7930;BME280;4010;42.698;23.124;2023-03-26T10:52:08;118349.16;;;-140.64;41.25
7930;BME280;4010;42.698;23.124;2023-03-26T10:54:48;118349.16;;;-140.64;40.45
7930;BME280;4010;42.698;23.124;2023-03-26T10:57:25;118349.16;;;-140.64;42.42
7930;BME280;4010;42.698;23.124;2023-03-26T10:59:57;118349.16;;;-140.64;38.85
7930;BME280;4010;42.698;23.124;2023-03-26T11:02:28;118349.16;;;-140.64;39.52
7930;BME280;4010;42.698;23.124;2023-03-26T11:05:02;118349.16;;;-140.64;38.90
7930;BME280;4010;42.698;23.124;2023-03-26T11:07:48;118349.16;;;-140.64;39.19
7930;BME280;4010;42.698;23.124;2023-03-26T11:10:24;118349.16;;;-140.64;42.65
7930;BME280;4010;42.698;23.124;2023-03-26T11:12:57;118349.16;;;-140.64;39.45
7930;BME280;4010;42.698;23.124;2023-03-26T11:15:32;118349.16;;;-140.64;39.33
7930;BME280;4010;42.698;23.124;2023-03-26T11:18:07;118349.16;;;-140.64;38.28
7930;BME280;4010;42.698;23.124;2023-03-26T11:20:39;118349.16;;;-140.64;39.47
7930;BME280;4010;42.698;23.124;2023-03-26T11:23:19;118349.16;;;-140.64;40.46
7930;BME280;4010;42.698;23.124;2023-03-26T11:26:03;118349.16;;;-140.64;34.79
7930;BME280;4010;42.698;23.124;2023-03-26T11:28:48;118349.16;;;-140.64;35.44
7930;BME280;4010;42.698;23.124;2023-03-26T11:31:27;118349.16;;;-140.64;36.27
7930;BME280;4010;42.698;23.124;2023-03-26T11:34:02;118349.16;;;-140.64;36.64
7930;BME280;4010;42.698;23.124;2023-03-26T11:36:33;118349.16;;;-140.64;35.44
7930;BME280;4010;42.698;23.124;2023-03-26T11:39:05;118349.16;;;-140.64;35.77
7930;BME280;4010;42.698;23.124;2023-03-26T11:41:38;118349.16;;;-140.64;36.93
7930;BME280;4010;42.698;23.124;2023-03-26T11:44:11;118349.16;;;-140.64;35.84
7930;BME280;4010;42.698;23.124;2023-03-26T11:46:42;118349.16;;;-140.64;37.28
7930;BME280;4010;42.698;23.124;2023-03-26T11:49:12;118349.16;;;-140.64;32.30
7930;BME280;4010;42.698;23.124;2023-03-26T11:51:42;118349.16;;;-140.64;30.91
7930;BME280;4010;42.698;23.124;2023-03-26T11:54:14;118349.16;;;-140.64;32.19
7930;BME280;4010;42.698;23.124;2023-03-26T11:56:45;118349.16;;;-140.64;31.30
7930;BME280;4010;42.698;23.124;2023-03-26T11:59:14;118349.16;;;-140.64;34.14
7930;BME280;4010;42.698;23.124;2023-03-26T12:01:47;118349.16;;;-140.64;33.84
7930;BME280;4010;42.698;23.124;2023-03-26T12:04:17;118349.16;;;-140.64;36.48
7930;BME280;4010;42.698;23.124;2023-03-26T12:06:53;118349.16;;;-140.64;35.40
7930;BME280;4010;42.698;23.124;2023-03-26T12:09:23;118349.16;;;-140.64;33.71
7930;BME280;4010;42.698;23.124;2023-03-26T12:11:52;118349.16;;;-140.64;33.05
7930;BME280;4010;42.698;23.124;2023-03-26T12:14:21;118349.16;;;-140.64;35.15
7930;BME280;4010;42.698;23.124;2023-03-26T12:17:01;118349.16;;;-140.64;35.94
7930;BME280;4010;42.698;23.124;2023-03-26T12:19:35;118349.16;;;-140.64;36.32
7930;BME280;4010;42.698;23.124;2023-03-26T12:22:04;118349.16;;;-140.64;37.09
7930;BME280;4010;42.698;23.124;2023-03-26T12:24:33;118349.16;;;-140.64;37.80
7930;BME280;4010;42.698;23.124;2023-03-26T12:27:19;118349.16;;;-140.64;37.22
7930;BME280;4010;42.698;23.124;2023-03-26T12:29:50;118349.16;;;-140.64;35.44
7930;BME280;4010;42.698;23.124;2023-03-26T12:32:17;118349.16;;;-140.64;32.59
7930;BME280;4010;42.698;23.124;2023-03-26T12:34:44;118349.16;;;-140.64;33.42
7930;BME280;4010;42.698;23.124;2023-03-26T12:37:33;118349.16;;;-140.64;32.83
7930;BME280;4010;42.698;23.124;2023-03-26T12:40:26;118349.16;;;-140.64;33.11
7930;BME280;4010;42.698;23.124;2023-03-26T12:42:54;118349.16;;;-140.64;31.82
7930;BME280;4010;42.698;23.124;2023-03-26T12:45:22;118349.16;;;-140.64;31.79
7930;BME280;4010;42.698;23.124;2023-03-26T12:47:54;118349.16;;;-140.64;30.37
7930;BME280;4010;42.698;23.124;2023-03-26T12:50:25;118349.16;;;-140.64;31.89
7930;BME280;4010;42.698;23.124;2023-03-26T12:53:19;118349.16;;;-140.64;32.29
7930;BME280;4010;42.698;23.124;2023-03-26T12:55:59;118349.16;;;-140.64;31.37
7930;BME280;4010;42.698;23.124;2023-03-26T12:58:40;118349.16;;;-140.64;30.64
7930;BME280;4010;42.698;23.124;2023-03-26T13:01:18;118349.16;;;-140.64;30.73
7930;BME280;4010;42.698;23.124;2023-03-26T13:04:02;118349.16;;;-140.64;29.34
7930;BME280;4010;42.698;23.124;2023-03-26T13:06:39;118349.16;;;-140.64;32.22
7930;BME280;4010;42.698;23.124;2023-03-26T13:09:32;118349.16;;;-140.64;32.93
7930;BME280;4010;42.698;23.124;2023-03-26T13:12:16;118349.16;;;-140.64;31.75
7930;BME280;4010;42.698;23.124;2023-03-26T13:14:58;118349.16;;;-140.64;30.55
7930;BME280;4010;42.698;23.124;2023-03-26T13:17:34;118349.16;;;-140.64;32.11
7930;BME280;4010;42.698;23.124;2023-03-26T13:20:09;118349.16;;;-140.64;30.79
7930;BME280;4010;42.698;23.124;2023-03-26T13:22:45;118349.16;;;-140.64;30.22
7930;BME280;4010;42.698;23.124;2023-03-26T13:25:25;118349.16;;;-140.64;28.74
7930;BME280;4010;42.698;23.124;2023-03-26T13:28:07;118349.16;;;-140.64;29.25
7930;BME280;4010;42.698;23.124;2023-03-26T13:30:39;118349.16;;;-140.64;30.22
7930;BME280;4010;42.698;23.124;2023-03-26T13:33:19;118349.16;;;-140.64;29.33